createdAt,value
2018-08-12T00:00:16.603Z,12.33
2018-08-12T00:01:16.666Z,12.36
2018-08-12T00:02:16.943Z,12.30
2018-08-12T00:03:16.211Z,12.32
2018-08-12T00:04:16.479Z,12.32
2018-08-12T00:05:16.750Z,12.28
2018-08-12T00:06:17.038Z,12.29
2018-08-12T00:07:16.313Z,12.29
2018-08-12T00:08:16.587Z,12.26
2018-08-12T00:09:16.873Z,12.29
2018-08-12T00:10:17.141Z,12.26
2018-08-12T00:11:17.201Z,12.26
2018-08-12T00:12:16.474Z,12.29
2018-08-12T00:13:16.748Z,12.30
2018-08-12T00:14:17.023Z,12.33
2018-08-12T00:15:16.373Z,12.32
2018-08-12T00:16:16.848Z,12.30
2018-08-12T00:17:17.133Z,12.28
2018-08-12T00:18:16.398Z,12.23
2018-08-12T00:19:16.659Z,12.23
2018-08-12T00:20:16.946Z,12.28
2018-08-12T00:21:16.970Z,12.26
2018-08-12T00:22:16.248Z,12.32
2018-08-12T00:23:16.514Z,12.26
2018-08-12T00:24:17.091Z,12.28
2018-08-12T00:25:16.368Z,12.26
2018-08-12T00:26:16.645Z,12.20
2018-08-12T00:27:16.913Z,12.23
2018-08-12T00:28:17.177Z,12.16
2018-08-12T00:29:16.451Z,12.12
2018-08-12T00:30:16.739Z,12.12
2018-08-12T00:31:16.783Z,12.05
2018-08-12T00:32:17.059Z,12.05
2018-08-12T00:33:16.329Z,11.99
2018-08-12T00:34:16.602Z,12.03
2018-08-12T00:35:16.877Z,11.96
2018-08-12T00:36:17.124Z,11.95
2018-08-12T00:37:16.393Z,11.91
2018-08-12T00:38:16.660Z,11.86
2018-08-12T00:39:16.924Z,11.96
2018-08-12T00:40:17.218Z,11.98
2018-08-12T00:41:16.245Z,11.96
2018-08-12T00:42:16.514Z,11.89
2018-08-12T00:43:16.778Z,11.85
2018-08-12T00:44:17.048Z,11.82
2018-08-12T00:45:16.464Z,11.81
2018-08-12T00:46:16.746Z,11.81
2018-08-12T00:47:17.004Z,11.77
2018-08-12T00:48:16.264Z,11.77
2018-08-12T00:49:16.544Z,11.77
2018-08-12T00:50:16.815Z,11.72
2018-08-12T00:51:16.858Z,11.74
2018-08-12T00:52:17.128Z,11.71
2018-08-12T00:53:16.401Z,11.71
2018-08-12T00:54:16.677Z,11.68
2018-08-12T00:55:16.962Z,11.63
2018-08-12T00:56:16.238Z,11.60
2018-08-12T00:57:16.509Z,11.58
2018-08-12T00:58:16.781Z,11.65
2018-08-12T00:59:17.074Z,11.63
2018-08-12T01:00:16.351Z,11.60
2018-08-12T01:01:16.402Z,11.54
2018-08-12T01:02:16.668Z,11.50
2018-08-12T01:03:16.927Z,11.53
2018-08-12T01:04:17.199Z,11.54
2018-08-12T01:05:16.469Z,11.53
2018-08-12T01:06:16.738Z,11.51
2018-08-12T01:07:17.011Z,11.51
2018-08-12T01:08:16.281Z,11.47
2018-08-12T01:09:16.549Z,11.47
2018-08-12T01:10:16.836Z,11.44
2018-08-12T01:11:16.869Z,11.44
2018-08-12T01:12:17.135Z,11.44
2018-08-12T01:13:16.406Z,11.46
2018-08-12T01:14:16.674Z,11.43
2018-08-12T01:15:16.948Z,11.42
2018-08-12T01:16:16.225Z,11.50
2018-08-12T01:17:16.493Z,11.53
2018-08-12T01:18:16.757Z,11.64
2018-08-12T01:19:17.036Z,11.65
2018-08-12T01:20:16.309Z,11.65
2018-08-12T01:21:16.369Z,11.65
2018-08-12T01:22:16.642Z,11.58
2018-08-12T01:23:16.920Z,11.57
2018-08-12T01:24:17.181Z,11.54
2018-08-12T01:25:16.465Z,11.53
2018-08-12T01:26:16.755Z,11.49
2018-08-12T01:27:17.019Z,11.47
2018-08-12T01:28:16.306Z,11.43
2018-08-12T01:29:16.583Z,11.42
2018-08-12T01:30:16.850Z,11.39
2018-08-12T01:31:16.913Z,11.42
2018-08-12T01:32:17.180Z,11.39
2018-08-12T01:33:16.452Z,11.36
2018-08-12T01:34:16.723Z,11.36
2018-08-12T01:35:17.008Z,11.34
2018-08-12T01:36:16.596Z,11.26
2018-08-12T01:37:16.873Z,11.25
2018-08-12T01:38:17.145Z,11.23
2018-08-12T01:39:16.422Z,11.26
2018-08-12T01:40:16.711Z,11.23
2018-08-12T01:41:16.736Z,11.22
2018-08-12T01:42:16.997Z,11.17
2018-08-12T01:43:16.264Z,11.19
2018-08-12T01:44:16.533Z,11.15
2018-08-12T01:45:16.804Z,11.15
2018-08-12T01:46:17.528Z,11.10
2018-08-12T01:47:16.793Z,11.09
2018-08-12T01:48:17.062Z,11.06
2018-08-12T01:49:16.340Z,11.02
2018-08-12T01:50:16.620Z,11.05
2018-08-12T01:51:16.653Z,11.03
2018-08-12T01:52:16.928Z,11.03
2018-08-12T01:53:17.197Z,11.00
2018-08-12T01:54:16.470Z,11.00
2018-08-12T01:55:16.734Z,10.95
2018-08-12T01:56:16.994Z,10.95
2018-08-12T01:57:16.269Z,10.95
2018-08-12T01:58:16.545Z,10.94
2018-08-12T01:59:16.816Z,10.89
2018-08-12T02:00:17.105Z,10.88
2018-08-12T02:01:17.160Z,10.84
2018-08-12T02:02:16.432Z,10.84
2018-08-12T02:03:16.697Z,10.82
2018-08-12T02:04:16.967Z,10.79
2018-08-12T02:05:16.241Z,10.75
2018-08-12T02:06:16.513Z,10.74
2018-08-12T02:07:16.786Z,10.72
2018-08-12T02:08:17.056Z,10.65
2018-08-12T02:09:16.326Z,10.64
2018-08-12T02:10:16.606Z,10.63
2018-08-12T02:11:16.648Z,10.65
2018-08-12T02:12:16.913Z,10.65
2018-08-12T02:13:17.182Z,10.63
2018-08-12T02:14:16.470Z,10.64
2018-08-12T02:15:16.745Z,10.63
2018-08-12T02:16:17.387Z,10.60
2018-08-12T02:17:16.661Z,10.60
2018-08-12T02:18:16.929Z,10.60
2018-08-12T02:19:16.218Z,10.51
2018-08-12T02:20:16.508Z,10.48
2018-08-12T02:21:16.551Z,10.48
2018-08-12T02:22:16.831Z,10.52
2018-08-12T02:23:17.101Z,10.45
2018-08-12T02:24:16.380Z,10.41
2018-08-12T02:25:16.645Z,10.36
2018-08-12T02:26:16.928Z,10.36
2018-08-12T02:27:17.202Z,10.20
2018-08-12T02:28:16.465Z,10.19
2018-08-12T02:29:16.738Z,10.10
2018-08-12T02:30:17.023Z,10.14
2018-08-12T02:31:17.318Z,10.10
2018-08-12T02:32:16.606Z,10.14
2018-08-12T02:33:16.885Z,10.16
2018-08-12T02:34:17.159Z,10.21
2018-08-12T02:35:16.429Z,10.17
2018-08-12T02:36:16.707Z,10.17
2018-08-12T02:37:16.993Z,10.16
2018-08-12T02:38:16.271Z,10.12
2018-08-12T02:39:16.546Z,10.09
2018-08-12T02:40:16.834Z,10.09
2018-08-12T02:41:16.885Z,10.10
2018-08-12T02:42:17.170Z,10.12
2018-08-12T02:43:16.454Z,10.08
2018-08-12T02:44:16.716Z,10.03
2018-08-12T02:45:16.990Z,10.01
2018-08-12T02:46:16.255Z,9.98
2018-08-12T02:47:16.865Z,9.98
2018-08-12T02:48:17.144Z,9.93
2018-08-12T02:49:16.417Z,9.96
2018-08-12T02:50:16.682Z,9.88
2018-08-12T02:51:16.728Z,9.84
2018-08-12T02:52:16.998Z,9.88
2018-08-12T02:53:16.275Z,9.86
2018-08-12T02:54:16.549Z,9.85
2018-08-12T02:55:16.832Z,9.82
2018-08-12T02:56:17.105Z,9.82
2018-08-12T02:57:16.386Z,9.82
2018-08-12T02:58:17.278Z,9.81
2018-08-12T02:59:16.554Z,9.78
2018-08-12T03:00:16.846Z,9.78
2018-08-12T03:01:16.880Z,9.75
2018-08-12T03:02:17.181Z,9.75
2018-08-12T03:03:16.458Z,9.72
2018-08-12T03:04:16.736Z,9.74
2018-08-12T03:05:17.027Z,9.75
2018-08-12T03:06:16.298Z,9.72
2018-08-12T03:07:16.575Z,9.71
2018-08-12T03:08:16.878Z,9.65
2018-08-12T03:09:17.157Z,9.59
2018-08-12T03:10:16.437Z,9.64
2018-08-12T03:11:16.475Z,9.59
2018-08-12T03:12:16.752Z,9.66
2018-08-12T03:13:17.013Z,9.71
2018-08-12T03:14:16.524Z,9.78
2018-08-12T03:15:16.801Z,9.81
2018-08-12T03:16:17.074Z,9.78
2018-08-12T03:17:16.340Z,9.76
2018-08-12T03:18:16.616Z,9.69
2018-08-12T03:19:16.878Z,9.66
2018-08-12T03:20:17.167Z,9.62
2018-08-12T03:21:16.202Z,9.59
2018-08-12T03:22:16.496Z,9.58
2018-08-12T03:23:16.802Z,9.57
2018-08-12T03:24:17.076Z,9.55
2018-08-12T03:25:16.355Z,9.55
2018-08-12T03:26:16.635Z,9.58
2018-08-12T03:27:16.918Z,9.59
2018-08-12T03:28:17.191Z,9.58
2018-08-12T03:29:16.458Z,9.58
2018-08-12T03:30:16.740Z,9.62
2018-08-12T03:31:16.783Z,9.62
2018-08-12T03:32:17.327Z,9.62
2018-08-12T03:33:16.616Z,9.65
2018-08-12T03:34:16.883Z,9.64
2018-08-12T03:35:17.158Z,9.65
2018-08-12T03:36:16.428Z,9.65
2018-08-12T03:37:16.701Z,9.65
2018-08-12T03:38:16.971Z,9.65
2018-08-12T03:39:16.245Z,9.65
2018-08-12T03:40:16.543Z,9.61
2018-08-12T03:41:16.588Z,9.64
2018-08-12T03:42:16.851Z,9.65
2018-08-12T03:43:17.117Z,9.61
2018-08-12T03:44:16.393Z,9.61
2018-08-12T03:45:16.673Z,9.57
2018-08-12T03:46:16.947Z,9.55
2018-08-12T03:47:16.218Z,9.57
2018-08-12T03:48:16.492Z,9.58
2018-08-12T03:49:16.755Z,9.53
2018-08-12T03:50:17.030Z,9.51
2018-08-12T03:51:17.074Z,9.50
2018-08-12T03:52:16.344Z,9.45
2018-08-12T03:53:16.613Z,9.47
2018-08-12T03:54:16.886Z,9.45
2018-08-12T03:55:17.153Z,9.43
2018-08-12T03:56:16.430Z,9.41
2018-08-12T03:57:16.689Z,9.37
2018-08-12T03:58:16.966Z,9.34
2018-08-12T03:59:16.229Z,9.34
2018-08-12T04:00:16.508Z,9.36
2018-08-12T04:01:16.550Z,9.38
2018-08-12T04:02:16.882Z,9.38
2018-08-12T04:03:16.257Z,9.41
2018-08-12T04:04:16.526Z,9.40
2018-08-12T04:05:16.801Z,9.38
2018-08-12T04:06:17.073Z,9.36
2018-08-12T04:07:16.341Z,9.34
2018-08-12T04:08:16.607Z,9.31
2018-08-12T04:09:16.878Z,9.27
2018-08-12T04:10:17.174Z,9.24
2018-08-12T04:11:17.191Z,9.26
2018-08-12T04:12:16.460Z,9.30
2018-08-12T04:13:16.721Z,9.30
2018-08-12T04:14:16.984Z,9.30
2018-08-12T04:15:16.256Z,9.31
2018-08-12T04:16:16.524Z,9.31
2018-08-12T04:17:16.802Z,9.36
2018-08-12T04:18:17.066Z,9.36
2018-08-12T04:19:16.338Z,9.36
2018-08-12T04:20:16.607Z,9.34
2018-08-12T04:21:16.658Z,9.34
2018-08-12T04:22:16.933Z,9.30
2018-08-12T04:23:17.202Z,9.33
2018-08-12T04:24:16.475Z,9.34
2018-08-12T04:25:16.759Z,9.38
2018-08-12T04:26:17.034Z,9.40
2018-08-12T04:27:16.292Z,9.38
2018-08-12T04:28:16.552Z,9.37
2018-08-12T04:29:16.816Z,9.37
2018-08-12T04:30:17.082Z,9.36
2018-08-12T04:31:17.140Z,9.34
2018-08-12T04:32:16.411Z,9.36
2018-08-12T04:33:16.686Z,9.36
2018-08-12T04:34:16.955Z,9.36
2018-08-12T04:35:16.224Z,9.40
2018-08-12T04:36:16.494Z,9.38
2018-08-12T04:37:16.758Z,9.38
2018-08-12T04:38:17.349Z,9.41
2018-08-12T04:39:16.614Z,9.44
2018-08-12T04:40:16.895Z,9.45
2018-08-12T04:41:16.930Z,9.45
2018-08-12T04:42:17.206Z,9.47
2018-08-12T04:43:16.472Z,9.47
2018-08-12T04:44:16.751Z,9.48
2018-08-12T04:45:17.030Z,9.47
2018-08-12T04:46:16.293Z,9.48
2018-08-12T04:47:16.559Z,9.50
2018-08-12T04:48:16.825Z,9.53
2018-08-12T04:49:17.100Z,9.54
2018-08-12T04:50:16.384Z,9.55
2018-08-12T04:51:16.440Z,9.57
2018-08-12T04:52:16.701Z,9.59
2018-08-12T04:53:16.970Z,9.62
2018-08-12T04:54:16.241Z,9.66
2018-08-12T04:55:16.512Z,9.65
2018-08-12T04:56:16.777Z,9.66
2018-08-12T04:57:17.051Z,9.66
2018-08-12T04:58:16.307Z,9.71
2018-08-12T04:59:16.576Z,9.75
2018-08-12T05:00:16.845Z,9.78
2018-08-12T05:01:16.902Z,9.80
2018-08-12T05:02:17.170Z,9.82
2018-08-12T05:03:16.437Z,9.84
2018-08-12T05:04:16.698Z,9.84
2018-08-12T05:05:16.968Z,9.92
2018-08-12T05:06:16.236Z,9.92
2018-08-12T05:07:16.513Z,9.95
2018-08-12T05:08:16.781Z,9.96
2018-08-12T05:09:17.054Z,10.02
2018-08-12T05:10:16.329Z,10.05
2018-08-12T05:11:16.392Z,10.06
2018-08-12T05:12:16.655Z,10.13
2018-08-12T05:13:16.930Z,10.16
2018-08-12T05:14:17.208Z,10.19
2018-08-12T05:15:16.481Z,10.19
2018-08-12T05:16:16.751Z,10.23
2018-08-12T05:17:17.017Z,10.27
2018-08-12T05:18:16.282Z,10.29
2018-08-12T05:19:16.569Z,10.33
2018-08-12T05:20:16.860Z,10.37
2018-08-12T05:21:16.902Z,10.37
2018-08-12T05:22:17.181Z,10.40
2018-08-12T05:23:16.463Z,10.45
2018-08-12T05:24:16.741Z,10.50
2018-08-12T05:25:17.047Z,10.54
2018-08-12T05:26:16.314Z,10.56
2018-08-12T05:27:16.586Z,10.61
2018-08-12T05:28:16.857Z,10.64
2018-08-12T05:29:17.124Z,10.70
2018-08-12T05:30:16.401Z,10.74
2018-08-12T05:31:16.460Z,10.77
2018-08-12T05:32:16.727Z,10.82
2018-08-12T05:33:16.982Z,10.89
2018-08-12T05:34:16.256Z,10.92
2018-08-12T05:35:16.562Z,10.98
2018-08-12T05:36:16.923Z,11.00
2018-08-12T05:37:16.477Z,11.09
2018-08-12T05:38:16.749Z,11.15
2018-08-12T05:39:17.008Z,11.15
2018-08-12T05:40:16.279Z,11.22
2018-08-12T05:41:16.328Z,11.30
2018-08-12T05:42:16.598Z,11.33
2018-08-12T05:43:16.863Z,11.39
2018-08-12T05:44:17.129Z,11.44
2018-08-12T05:45:16.399Z,11.53
2018-08-12T05:46:16.678Z,11.54
2018-08-12T05:47:16.947Z,11.61
2018-08-12T05:48:16.210Z,11.68
2018-08-12T05:49:16.505Z,11.67
2018-08-12T05:50:16.777Z,11.78
2018-08-12T05:51:16.837Z,11.81
2018-08-12T05:52:17.143Z,11.85
2018-08-12T05:53:16.418Z,11.88
2018-08-12T05:54:16.675Z,11.95
2018-08-12T05:55:16.947Z,12.01
2018-08-12T05:56:16.209Z,12.06
2018-08-12T05:57:16.535Z,12.11
2018-08-12T05:58:17.042Z,12.12
2018-08-12T05:59:16.309Z,12.16
2018-08-12T06:00:16.614Z,12.22
2018-08-12T06:01:16.636Z,12.30
2018-08-12T06:02:16.905Z,12.32
2018-08-12T06:03:17.320Z,12.40
2018-08-12T06:04:16.588Z,12.41
2018-08-12T06:05:16.855Z,12.50
2018-08-12T06:06:17.133Z,12.51
2018-08-12T06:07:16.399Z,12.72
2018-08-12T06:08:16.659Z,12.72
2018-08-12T06:09:17.259Z,12.74
2018-08-12T06:10:16.533Z,12.81
2018-08-12T06:11:16.584Z,12.94
2018-08-12T06:12:16.860Z,12.94
2018-08-12T06:13:17.134Z,13.08
2018-08-12T06:14:16.397Z,13.15
2018-08-12T06:15:16.682Z,13.22
2018-08-12T06:16:16.942Z,13.26
2018-08-12T06:17:16.253Z,13.33
2018-08-12T06:18:16.562Z,13.46
2018-08-12T06:19:16.837Z,13.49
2018-08-12T06:20:17.133Z,13.57
2018-08-12T06:21:17.161Z,13.60
2018-08-12T06:22:16.428Z,13.74
2018-08-12T06:23:16.693Z,13.87
2018-08-12T06:24:16.957Z,13.95
2018-08-12T06:25:16.217Z,14.09
2018-08-12T06:26:16.472Z,14.13
2018-08-12T06:27:16.742Z,14.16
2018-08-12T06:28:17.006Z,14.32
2018-08-12T06:29:16.268Z,14.40
2018-08-12T06:30:16.546Z,14.59
2018-08-12T06:31:16.606Z,14.64
2018-08-12T06:32:16.865Z,14.77
2018-08-12T06:33:17.132Z,14.84
2018-08-12T06:34:16.446Z,14.88
2018-08-12T06:35:16.765Z,14.98
2018-08-12T06:36:17.037Z,15.15
2018-08-12T06:37:16.318Z,15.32
2018-08-12T06:38:16.594Z,15.63
2018-08-12T06:39:16.864Z,15.73
2018-08-12T06:40:17.435Z,15.87
2018-08-12T06:41:17.194Z,15.94
2018-08-12T06:42:16.458Z,16.08
2018-08-12T06:43:16.723Z,16.17
2018-08-12T06:44:16.991Z,16.33
2018-08-12T06:45:16.262Z,16.42
2018-08-12T06:46:16.572Z,16.73
2018-08-12T06:47:16.919Z,16.77
2018-08-12T06:48:17.199Z,16.68
2018-08-12T06:49:16.464Z,16.81
2018-08-12T06:50:16.731Z,16.80
2018-08-12T06:51:16.786Z,16.97
2018-08-12T06:52:17.055Z,17.03
2018-08-12T06:53:16.318Z,16.97
2018-08-12T06:54:16.583Z,17.03
2018-08-12T06:55:16.851Z,17.41
2018-08-12T06:56:17.128Z,17.49
2018-08-12T06:57:16.403Z,17.57
2018-08-12T06:58:16.668Z,17.57
2018-08-12T06:59:16.942Z,17.59
2018-08-12T07:00:16.227Z,17.70
2018-08-12T07:01:16.282Z,17.69
2018-08-12T07:02:16.778Z,17.69
2018-08-12T07:03:17.039Z,17.69
2018-08-12T07:04:16.298Z,17.79
2018-08-12T07:05:16.571Z,17.79
2018-08-12T07:06:16.845Z,17.89
2018-08-12T07:07:17.116Z,18.01
2018-08-12T07:08:16.380Z,17.97
2018-08-12T07:09:16.653Z,17.96
2018-08-12T07:10:16.923Z,17.90
2018-08-12T07:11:16.958Z,18.28
2018-08-12T07:12:16.240Z,18.28
2018-08-12T07:13:16.509Z,18.38
2018-08-12T07:14:16.787Z,18.28
2018-08-12T07:15:17.144Z,18.27
2018-08-12T07:16:16.422Z,18.31
2018-08-12T07:17:16.923Z,18.25
2018-08-12T07:18:17.191Z,18.33
2018-08-12T07:19:16.452Z,18.35
2018-08-12T07:20:16.717Z,18.36
2018-08-12T07:21:16.755Z,18.33
2018-08-12T07:22:17.041Z,18.62
2018-08-12T07:23:16.304Z,18.59
2018-08-12T07:24:16.570Z,18.84
2018-08-12T07:25:16.856Z,18.91
2018-08-12T07:26:17.708Z,19.05
2018-08-12T07:27:16.980Z,18.93
2018-08-12T07:28:16.253Z,18.84
2018-08-12T07:29:16.523Z,18.91
2018-08-12T07:30:16.798Z,18.97
2018-08-12T07:31:16.825Z,18.94
2018-08-12T07:32:17.361Z,18.83
2018-08-12T07:33:16.624Z,18.83
2018-08-12T07:34:16.889Z,18.90
2018-08-12T07:35:17.153Z,18.97
2018-08-12T07:36:16.418Z,18.91
2018-08-12T07:37:16.683Z,18.98
2018-08-12T07:38:16.952Z,19.03
2018-08-12T07:39:16.225Z,19.07
2018-08-12T07:40:16.508Z,18.95
2018-08-12T07:41:16.560Z,18.88
2018-08-12T07:42:16.833Z,18.94
2018-08-12T07:43:17.095Z,19.10
2018-08-12T07:44:16.372Z,19.05
2018-08-12T07:45:16.644Z,19.53
2018-08-12T07:46:16.904Z,19.66
2018-08-12T07:47:17.173Z,19.69
2018-08-12T07:48:16.454Z,19.69
2018-08-12T07:49:16.725Z,19.76
2018-08-12T07:50:17.003Z,19.90
2018-08-12T07:51:17.043Z,19.96
2018-08-12T07:52:16.310Z,19.86
2018-08-12T07:53:16.587Z,19.83
2018-08-12T07:54:16.860Z,19.87
2018-08-12T07:55:17.138Z,19.84
2018-08-12T07:56:16.414Z,19.87
2018-08-12T07:57:16.685Z,19.81
2018-08-12T07:58:16.967Z,19.87
2018-08-12T07:59:16.225Z,19.89
2018-08-12T08:00:16.505Z,19.94
2018-08-12T08:01:16.539Z,20.06
2018-08-12T08:02:16.816Z,20.08
2018-08-12T08:03:17.083Z,20.13
2018-08-12T08:04:16.338Z,20.20
2018-08-12T08:05:16.610Z,20.23
2018-08-12T08:06:16.952Z,20.21
2018-08-12T08:07:16.379Z,20.25
2018-08-12T08:08:16.653Z,20.24
2018-08-12T08:09:16.925Z,20.35
2018-08-12T08:10:17.200Z,20.48
2018-08-12T08:11:16.235Z,20.55
2018-08-12T08:12:16.503Z,20.52
2018-08-12T08:13:16.766Z,20.52
2018-08-12T08:14:17.032Z,20.62
2018-08-12T08:15:16.295Z,20.62
2018-08-12T08:16:16.556Z,20.76
2018-08-12T08:17:16.818Z,20.76
2018-08-12T08:18:17.097Z,20.84
2018-08-12T08:19:16.365Z,20.94
2018-08-12T08:20:16.658Z,21.21
2018-08-12T08:21:16.702Z,21.20
2018-08-12T08:22:16.973Z,21.10
2018-08-12T08:23:16.246Z,21.09
2018-08-12T08:24:16.520Z,21.10
2018-08-12T08:25:16.800Z,21.15
2018-08-12T08:26:17.098Z,21.15
2018-08-12T08:27:16.356Z,21.17
2018-08-12T08:28:16.634Z,21.23
2018-08-12T08:29:16.904Z,21.33
2018-08-12T08:30:17.179Z,21.48
2018-08-12T08:31:16.288Z,21.44
2018-08-12T08:32:16.618Z,21.49
2018-08-12T08:33:17.099Z,21.61
2018-08-12T08:34:16.361Z,21.65
2018-08-12T08:35:16.624Z,21.65
2018-08-12T08:36:16.895Z,21.68
2018-08-12T08:37:17.159Z,21.76
2018-08-12T08:38:16.433Z,22.21
2018-08-12T08:39:16.692Z,22.13
2018-08-12T08:40:16.972Z,22.07
2018-08-12T08:41:17.002Z,22.17
2018-08-12T08:42:16.268Z,22.27
2018-08-12T08:43:16.540Z,22.38
2018-08-12T08:44:16.805Z,22.44
2018-08-12T08:45:17.073Z,22.26
2018-08-12T08:46:16.336Z,22.16
2018-08-12T08:47:16.609Z,22.23
2018-08-12T08:48:16.878Z,22.20
2018-08-12T08:49:17.149Z,22.23
2018-08-12T08:50:16.428Z,22.23
2018-08-12T08:51:16.479Z,22.24
2018-08-12T08:52:16.754Z,22.33
2018-08-12T08:53:17.052Z,22.37
2018-08-12T08:54:16.326Z,22.50
2018-08-12T08:55:16.618Z,22.50
2018-08-12T08:56:16.881Z,22.45
2018-08-12T08:57:17.146Z,22.64
2018-08-12T08:58:16.414Z,22.67
2018-08-12T08:59:16.692Z,22.70
2018-08-12T09:00:16.986Z,22.78
2018-08-12T09:01:17.079Z,22.85
2018-08-12T09:02:16.414Z,22.78
2018-08-12T09:03:16.690Z,22.79
2018-08-12T09:04:16.969Z,22.79
2018-08-12T09:05:16.255Z,22.65
2018-08-12T09:06:16.524Z,22.70
2018-08-12T09:07:16.793Z,22.68
2018-08-12T09:08:17.186Z,22.72
2018-08-12T09:09:17.199Z,22.86
2018-08-12T09:10:16.336Z,22.96
2018-08-12T09:11:16.392Z,22.88
2018-08-12T09:12:16.655Z,22.95
2018-08-12T09:13:16.920Z,23.02
2018-08-12T09:14:17.197Z,23.05
2018-08-12T09:15:16.526Z,23.16
2018-08-12T09:16:16.803Z,23.18
2018-08-12T09:17:17.071Z,23.23
2018-08-12T09:18:16.425Z,23.25
2018-08-12T09:19:17.024Z,23.37
2018-08-12T09:20:16.304Z,23.37
2018-08-12T09:21:16.362Z,23.36
2018-08-12T09:22:16.647Z,23.13
2018-08-12T09:23:16.908Z,23.02
2018-08-12T09:24:17.200Z,23.16
2018-08-12T09:25:16.489Z,23.23
2018-08-12T09:26:16.771Z,23.44
2018-08-12T09:27:17.040Z,23.73
2018-08-12T09:28:16.310Z,23.84
2018-08-12T09:29:16.584Z,23.99
2018-08-12T09:30:16.869Z,24.27
2018-08-12T09:31:16.907Z,24.26
2018-08-12T09:32:17.168Z,23.99
2018-08-12T09:33:16.442Z,23.94
2018-08-12T09:34:16.707Z,23.95
2018-08-12T09:35:16.978Z,23.91
2018-08-12T09:36:16.254Z,24.01
2018-08-12T09:37:16.525Z,24.12
2018-08-12T09:38:16.791Z,24.32
2018-08-12T09:39:17.073Z,24.20
2018-08-12T09:40:16.352Z,24.23
2018-08-12T09:41:16.402Z,24.22
2018-08-12T09:42:16.675Z,24.29
2018-08-12T09:43:16.940Z,24.27
2018-08-12T09:44:16.214Z,24.26
2018-08-12T09:45:16.500Z,24.40
2018-08-12T09:46:16.772Z,24.15
2018-08-12T09:47:17.042Z,24.04
2018-08-12T09:48:16.309Z,24.04
2018-08-12T09:49:16.578Z,23.92
2018-08-12T09:50:16.849Z,23.89
2018-08-12T09:51:16.918Z,24.05
2018-08-12T09:52:16.263Z,24.08
2018-08-12T09:53:16.529Z,24.13
2018-08-12T09:54:16.796Z,24.13
2018-08-12T09:55:17.079Z,24.38
2018-08-12T09:56:16.345Z,24.32
2018-08-12T09:57:16.600Z,24.32
2018-08-12T09:58:16.870Z,24.63
2018-08-12T09:59:17.144Z,24.68
2018-08-12T10:00:16.466Z,24.42
2018-08-12T10:01:16.488Z,24.51
2018-08-12T10:02:16.761Z,24.66
2018-08-12T10:03:17.029Z,24.72
2018-08-12T10:04:16.321Z,24.84
2018-08-12T10:05:16.603Z,24.77
2018-08-12T10:06:16.873Z,24.78
2018-08-12T10:07:17.133Z,25.16
2018-08-12T10:08:16.523Z,25.04
2018-08-12T10:09:16.786Z,25.09
2018-08-12T10:10:17.071Z,25.15
2018-08-12T10:11:17.386Z,24.66
2018-08-12T10:12:16.652Z,24.68
2018-08-12T10:13:16.922Z,24.84
2018-08-12T10:14:17.192Z,24.75
2018-08-12T10:15:16.507Z,24.88
2018-08-12T10:16:16.780Z,24.67
2018-08-12T10:17:17.045Z,24.81
2018-08-12T10:18:16.314Z,24.72
2018-08-12T10:19:16.582Z,24.70
2018-08-12T10:20:16.855Z,24.68
2018-08-12T10:21:16.907Z,24.87
2018-08-12T10:22:17.170Z,25.05
2018-08-12T10:23:16.430Z,25.04
2018-08-12T10:24:16.704Z,25.26
2018-08-12T10:25:16.976Z,25.30
2018-08-12T10:26:16.241Z,25.30
2018-08-12T10:27:16.515Z,25.19
2018-08-12T10:28:16.783Z,24.98
2018-08-12T10:29:17.125Z,24.99
2018-08-12T10:30:16.550Z,24.74
2018-08-12T10:31:16.604Z,24.81
2018-08-12T10:32:16.877Z,24.91
2018-08-12T10:33:17.152Z,24.67
2018-08-12T10:34:16.421Z,24.77
2018-08-12T10:35:16.689Z,24.61
2018-08-12T10:36:16.956Z,24.70
2018-08-12T10:37:16.217Z,24.68
2018-08-12T10:38:16.483Z,24.92
2018-08-12T10:39:16.745Z,24.92
2018-08-12T10:40:17.023Z,24.85
2018-08-12T10:41:17.077Z,24.98
2018-08-12T10:42:16.347Z,24.94
2018-08-12T10:43:16.619Z,25.04
2018-08-12T10:44:16.940Z,25.12
2018-08-12T10:45:16.294Z,25.18
2018-08-12T10:46:16.563Z,25.01
2018-08-12T10:47:16.839Z,24.97
2018-08-12T10:48:17.109Z,24.67
2018-08-12T10:49:16.377Z,24.67
2018-08-12T10:50:16.659Z,24.95
2018-08-12T10:51:16.713Z,24.98
2018-08-12T10:52:16.982Z,24.98
2018-08-12T10:53:16.258Z,25.23
2018-08-12T10:54:16.541Z,24.99
2018-08-12T10:55:16.809Z,24.87
2018-08-12T10:56:17.077Z,25.28
2018-08-12T10:57:16.354Z,25.49
2018-08-12T10:58:16.615Z,25.36
2018-08-12T10:59:16.901Z,25.25
2018-08-12T11:00:17.234Z,24.98
2018-08-12T11:01:16.240Z,24.99
2018-08-12T11:02:16.509Z,24.95
2018-08-12T11:03:16.786Z,25.08
2018-08-12T11:04:17.054Z,24.88
2018-08-12T11:05:16.331Z,24.92
2018-08-12T11:06:16.602Z,25.14
2018-08-12T11:07:16.895Z,25.22
2018-08-12T11:08:16.225Z,25.35
2018-08-12T11:09:16.497Z,25.04
2018-08-12T11:10:16.784Z,25.01
2018-08-12T11:11:16.823Z,24.94
2018-08-12T11:12:17.138Z,25.05
2018-08-12T11:13:16.475Z,25.22
2018-08-12T11:14:16.739Z,25.45
2018-08-12T11:15:17.009Z,25.69
2018-08-12T11:16:16.278Z,25.85
2018-08-12T11:17:16.537Z,26.01
2018-08-12T11:18:16.800Z,26.04
2018-08-12T11:19:17.069Z,26.11
2018-08-12T11:20:16.375Z,26.04
2018-08-12T11:21:16.382Z,25.98
2018-08-12T11:22:16.663Z,25.95
2018-08-12T11:23:16.926Z,26.11
2018-08-12T11:24:17.202Z,26.11
2018-08-12T11:25:16.463Z,25.94
2018-08-12T11:26:16.734Z,25.72
2018-08-12T11:27:17.000Z,25.43
2018-08-12T11:28:16.362Z,25.45
2018-08-12T11:29:16.634Z,25.55
2018-08-12T11:30:16.914Z,25.49
2018-08-12T11:31:16.980Z,25.46
2018-08-12T11:32:16.242Z,25.47
2018-08-12T11:33:16.515Z,25.77
2018-08-12T11:34:16.782Z,25.87
2018-08-12T11:35:17.060Z,26.50
2018-08-12T11:36:16.345Z,26.32
2018-08-12T11:37:16.615Z,26.50
2018-08-12T11:38:16.887Z,26.43
2018-08-12T11:39:17.146Z,26.40
2018-08-12T11:40:16.431Z,26.45
2018-08-12T11:41:16.520Z,26.39
2018-08-12T11:42:17.023Z,26.31
2018-08-12T11:43:16.294Z,26.36
2018-08-12T11:44:16.570Z,26.34
2018-08-12T11:45:16.842Z,26.27
2018-08-12T11:46:17.114Z,26.38
2018-08-12T11:47:16.391Z,26.50
2018-08-12T11:48:16.668Z,26.39
2018-08-12T11:49:16.937Z,26.36
2018-08-12T11:50:16.186Z,26.60
2018-08-12T11:51:16.253Z,26.46
2018-08-12T11:52:16.524Z,26.56
2018-08-12T11:53:16.790Z,26.63
2018-08-12T11:54:17.061Z,26.59
2018-08-12T11:55:16.337Z,26.52
2018-08-12T11:56:16.600Z,26.38
2018-08-12T11:57:16.875Z,26.46
2018-08-12T11:58:17.112Z,26.62
2018-08-12T11:59:16.379Z,26.66
2018-08-12T12:00:16.657Z,26.82
2018-08-12T12:01:16.697Z,26.90
2018-08-12T12:02:17.112Z,26.63
2018-08-12T12:03:16.688Z,26.67
2018-08-12T12:04:16.970Z,27.07
2018-08-12T12:05:16.338Z,27.07
2018-08-12T12:06:16.617Z,27.03
2018-08-12T12:07:16.887Z,27.11
2018-08-12T12:08:17.171Z,27.20
2018-08-12T12:09:16.447Z,27.17
2018-08-12T12:10:16.727Z,27.15
2018-08-12T12:11:16.758Z,26.94
2018-08-12T12:12:17.017Z,26.73
2018-08-12T12:13:16.261Z,26.76
2018-08-12T12:14:16.515Z,26.93
2018-08-12T12:15:16.807Z,26.79
2018-08-12T12:16:17.080Z,26.67
2018-08-12T12:17:16.352Z,26.38
2018-08-12T12:18:16.630Z,26.62
2018-08-12T12:19:16.898Z,27.04
2018-08-12T12:20:17.169Z,27.14
2018-08-12T12:21:16.224Z,26.91
2018-08-12T12:22:16.494Z,26.73
2018-08-12T12:23:16.743Z,26.71
2018-08-12T12:24:17.005Z,26.67
2018-08-12T12:25:16.279Z,26.87
2018-08-12T12:26:16.559Z,27.03
2018-08-12T12:27:16.823Z,26.97
2018-08-12T12:28:17.099Z,26.93
2018-08-12T12:29:16.368Z,27.04
2018-08-12T12:30:16.672Z,27.25
2018-08-12T12:31:16.692Z,27.21
2018-08-12T12:32:16.969Z,27.13
2018-08-12T12:33:16.235Z,27.07
2018-08-12T12:34:16.512Z,27.07
2018-08-12T12:35:16.790Z,27.48
2018-08-12T12:36:17.056Z,27.54
2018-08-12T12:37:16.323Z,27.61
2018-08-12T12:38:16.563Z,27.68
2018-08-12T12:39:16.846Z,27.51
2018-08-12T12:40:17.112Z,27.39
2018-08-12T12:41:17.172Z,27.32
2018-08-12T12:42:16.439Z,27.15
2018-08-12T12:43:16.702Z,27.15
2018-08-12T12:44:16.946Z,26.98
2018-08-12T12:45:16.198Z,26.96
2018-08-12T12:46:16.465Z,27.08
2018-08-12T12:47:16.726Z,27.13
2018-08-12T12:48:16.994Z,27.28
2018-08-12T12:49:16.283Z,27.29
2018-08-12T12:50:16.683Z,27.34
2018-08-12T12:51:16.609Z,27.39
2018-08-12T12:52:16.848Z,27.29
2018-08-12T12:53:17.100Z,27.45
2018-08-12T12:54:16.368Z,27.46
2018-08-12T12:55:16.631Z,27.65
2018-08-12T12:56:16.981Z,27.46
2018-08-12T12:57:16.315Z,27.57